sensor_id;sensor_type;location;lat;lon;timestamp;temperature;humidity
23499;DHT22;11926;48.120;11.562;2023-07-22T00:00:41;16.20;99.90
23499;DHT22;11926;48.120;11.562;2023-07-22T00:03:28;16.20;99.90
23499;DHT22;11926;48.120;11.562;2023-07-22T00:06:16;16.10;99.90
23499;DHT22;11926;48.120;11.562;2023-07-22T00:09:02;16.10;99.90
23499;DHT22;11926;48.120;11.562;2023-07-22T00:11:51;16.00;99.90
23499;DHT22;11926;48.120;11.562;2023-07-22T00:14:40;16.00;99.90
23499;DHT22;11926;48.120;11.562;2023-07-22T00:17:28;16.00;99.90
23499;DHT22;11926;48.120;11.562;2023-07-22T00:20:15;15.90;99.90
23499;DHT22;11926;48.120;11.562;2023-07-22T00:23:02;15.90;99.90
23499;DHT22;11926;48.120;11.562;2023-07-22T00:25:50;15.90;99.90
23499;DHT22;11926;48.120;11.562;2023-07-22T00:28:38;15.80;99.90
23499;DHT22;11926;48.120;11.562;2023-07-22T00:31:25;15.80;99.90
23499;DHT22;11926;48.120;11.562;2023-07-22T00:34:13;15.80;99.90
23499;DHT22;11926;48.120;11.562;2023-07-22T00:37:01;15.80;99.90
23499;DHT22;11926;48.120;11.562;2023-07-22T00:39:48;15.70;99.90
23499;DHT22;11926;48.120;11.562;2023-07-22T00:42:35;15.80;99.90
23499;DHT22;11926;48.120;11.562;2023-07-22T00:45:23;15.80;99.90
23499;DHT22;11926;48.120;11.562;2023-07-22T00:48:11;15.80;99.90
23499;DHT22;11926;48.120;11.562;2023-07-22T00:51:00;15.70;99.90
23499;DHT22;11926;48.120;11.562;2023-07-22T00:53:47;15.70;99.90
23499;DHT22;11926;48.120;11.562;2023-07-22T00:56:36;15.60;99.90
23499;DHT22;11926;48.120;11.562;2023-07-22T00:59:24;15.60;99.90
23499;DHT22;11926;48.120;11.562;2023-07-22T01:02:13;15.50;99.90
23499;DHT22;11926;48.120;11.562;2023-07-22T01:05:00;15.50;99.90
23499;DHT22;11926;48.120;11.562;2023-07-22T01:07:48;15.50;99.90
23499;DHT22;11926;48.120;11.562;2023-07-22T01:10:34;15.50;99.90
23499;DHT22;11926;48.120;11.562;2023-07-22T01:13:22;15.40;99.90
23499;DHT22;11926;48.120;11.562;2023-07-22T01:16:09;15.40;99.90
23499;DHT22;11926;48.120;11.562;2023-07-22T01:18:58;15.30;99.90
23499;DHT22;11926;48.120;11.562;2023-07-22T01:21:46;15.30;99.90
23499;DHT22;11926;48.120;11.562;2023-07-22T01:24:35;15.20;99.90
23499;DHT22;11926;48.120;11.562;2023-07-22T01:27:23;15.20;99.90
23499;DHT22;11926;48.120;11.562;2023-07-22T01:30:11;15.20;99.90
23499;DHT22;11926;48.120;11.562;2023-07-22T01:32:58;15.20;99.90
23499;DHT22;11926;48.120;11.562;2023-07-22T01:35:45;15.10;99.90
23499;DHT22;11926;48.120;11.562;2023-07-22T01:38:32;15.10;99.90
23499;DHT22;11926;48.120;11.562;2023-07-22T01:41:21;15.00;99.90
23499;DHT22;11926;48.120;11.562;2023-07-22T01:44:08;15.00;99.90
23499;DHT22;11926;48.120;11.562;2023-07-22T01:46:56;15.00;99.90
23499;DHT22;11926;48.120;11.562;2023-07-22T01:49:44;15.10;99.90
23499;DHT22;11926;48.120;11.562;2023-07-22T01:52:31;15.10;99.90
23499;DHT22;11926;48.120;11.562;2023-07-22T01:55:18;15.20;99.90
23499;DHT22;11926;48.120;11.562;2023-07-22T01:58:06;15.30;99.90
23499;DHT22;11926;48.120;11.562;2023-07-22T02:00:53;15.40;99.90
23499;DHT22;11926;48.120;11.562;2023-07-22T02:03:40;15.50;99.90
23499;DHT22;11926;48.120;11.562;2023-07-22T02:06:28;15.50;99.90
23499;DHT22;11926;48.120;11.562;2023-07-22T02:09:15;15.60;99.90
23499;DHT22;11926;48.120;11.562;2023-07-22T02:12:03;15.70;99.90
23499;DHT22;11926;48.120;11.562;2023-07-22T02:14:53;15.70;99.90
23499;DHT22;11926;48.120;11.562;2023-07-22T02:17:40;15.70;99.90
23499;DHT22;11926;48.120;11.562;2023-07-22T02:20:27;15.70;99.90
23499;DHT22;11926;48.120;11.562;2023-07-22T02:23:15;15.70;99.90
23499;DHT22;11926;48.120;11.562;2023-07-22T02:26:02;15.70;99.90
23499;DHT22;11926;48.120;11.562;2023-07-22T02:28:50;15.70;99.90
23499;DHT22;11926;48.120;11.562;2023-07-22T02:31:39;15.70;99.90
23499;DHT22;11926;48.120;11.562;2023-07-22T02:34:26;15.60;99.90
23499;DHT22;11926;48.120;11.562;2023-07-22T02:37:13;15.60;99.90
23499;DHT22;11926;48.120;11.562;2023-07-22T02:40:00;15.60;99.90
23499;DHT22;11926;48.120;11.562;2023-07-22T02:42:54;15.50;99.90
23499;DHT22;11926;48.120;11.562;2023-07-22T02:45:41;15.50;99.90
23499;DHT22;11926;48.120;11.562;2023-07-22T02:48:30;15.40;99.90
23499;DHT22;11926;48.120;11.562;2023-07-22T02:51:17;15.40;99.90
23499;DHT22;11926;48.120;11.562;2023-07-22T02:54:04;15.40;99.90
23499;DHT22;11926;48.120;11.562;2023-07-22T02:56:51;15.30;99.90
23499;DHT22;11926;48.120;11.562;2023-07-22T02:59:38;15.30;99.90
23499;DHT22;11926;48.120;11.562;2023-07-22T03:02:25;15.30;99.90
23499;DHT22;11926;48.120;11.562;2023-07-22T03:05:14;15.20;99.90
23499;DHT22;11926;48.120;11.562;2023-07-22T03:08:00;15.20;99.90
23499;DHT22;11926;48.120;11.562;2023-07-22T03:10:48;15.20;99.90
23499;DHT22;11926;48.120;11.562;2023-07-22T03:13:36;15.20;99.90
23499;DHT22;11926;48.120;11.562;2023-07-22T03:16:23;15.20;99.90
23499;DHT22;11926;48.120;11.562;2023-07-22T03:19:10;15.20;99.90
23499;DHT22;11926;48.120;11.562;2023-07-22T03:21:59;15.20;99.90
23499;DHT22;11926;48.120;11.562;2023-07-22T03:24:46;15.20;99.90
23499;DHT22;11926;48.120;11.562;2023-07-22T03:27:33;15.20;99.90
23499;DHT22;11926;48.120;11.562;2023-07-22T03:30:22;15.10;99.90
23499;DHT22;11926;48.120;11.562;2023-07-22T03:33:09;15.10;99.90
23499;DHT22;11926;48.120;11.562;2023-07-22T03:35:57;15.10;99.90
23499;DHT22;11926;48.120;11.562;2023-07-22T03:38:46;15.10;99.90
23499;DHT22;11926;48.120;11.562;2023-07-22T03:41:33;15.10;99.90
23499;DHT22;11926;48.120;11.562;2023-07-22T03:44:20;15.10;99.90
23499;DHT22;11926;48.120;11.562;2023-07-22T03:47:07;15.20;99.90
23499;DHT22;11926;48.120;11.562;2023-07-22T03:49:54;15.20;99.90
23499;DHT22;11926;48.120;11.562;2023-07-22T03:52:41;15.30;99.90
23499;DHT22;11926;48.120;11.562;2023-07-22T03:55:29;15.30;99.90
23499;DHT22;11926;48.120;11.562;2023-07-22T03:58:16;15.30;99.90
23499;DHT22;11926;48.120;11.562;2023-07-22T04:01:04;15.30;99.90
23499;DHT22;11926;48.120;11.562;2023-07-22T04:03:51;15.30;99.90
23499;DHT22;11926;48.120;11.562;2023-07-22T04:06:38;15.30;99.90
23499;DHT22;11926;48.120;11.562;2023-07-22T04:09:27;15.30;99.90
23499;DHT22;11926;48.120;11.562;2023-07-22T04:12:15;15.30;99.90
23499;DHT22;11926;48.120;11.562;2023-07-22T04:15:02;15.30;99.90
23499;DHT22;11926;48.120;11.562;2023-07-22T04:17:50;15.30;99.90
23499;DHT22;11926;48.120;11.562;2023-07-22T04:20:37;15.30;99.90
23499;DHT22;11926;48.120;11.562;2023-07-22T04:23:24;15.30;99.90
23499;DHT22;11926;48.120;11.562;2023-07-22T04:26:11;15.30;99.90
23499;DHT22;11926;48.120;11.562;2023-07-22T04:28:59;15.40;99.90
23499;DHT22;11926;48.120;11.562;2023-07-22T04:31:46;15.40;99.90
23499;DHT22;11926;48.120;11.562;2023-07-22T04:34:34;15.50;99.90
23499;DHT22;11926;48.120;11.562;2023-07-22T04:37:21;15.50;99.90
23499;DHT22;11926;48.120;11.562;2023-07-22T04:40:08;15.60;99.90
23499;DHT22;11926;48.120;11.562;2023-07-22T04:43:00;15.70;99.90
23499;DHT22;11926;48.120;11.562;2023-07-22T04:45:48;15.70;99.90
23499;DHT22;11926;48.120;11.562;2023-07-22T04:48:35;15.80;99.90
23499;DHT22;11926;48.120;11.562;2023-07-22T04:51:22;15.90;99.90
23499;DHT22;11926;48.120;11.562;2023-07-22T04:54:10;16.10;99.90
23499;DHT22;11926;48.120;11.562;2023-07-22T04:56:57;16.20;99.90
23499;DHT22;11926;48.120;11.562;2023-07-22T04:59:45;16.30;99.90
23499;DHT22;11926;48.120;11.562;2023-07-22T05:02:34;16.40;99.90
23499;DHT22;11926;48.120;11.562;2023-07-22T05:05:21;16.50;99.90
23499;DHT22;11926;48.120;11.562;2023-07-22T05:08:08;16.60;99.90
23499;DHT22;11926;48.120;11.562;2023-07-22T05:10:56;16.70;99.90
23499;DHT22;11926;48.120;11.562;2023-07-22T05:13:43;16.90;99.90
23499;DHT22;11926;48.120;11.562;2023-07-22T05:16:30;16.90;99.90
23499;DHT22;11926;48.120;11.562;2023-07-22T05:19:18;17.10;99.90
23499;DHT22;11926;48.120;11.562;2023-07-22T05:22:06;17.20;99.90
23499;DHT22;11926;48.120;11.562;2023-07-22T05:24:53;17.30;99.90
23499;DHT22;11926;48.120;11.562;2023-07-22T05:27:41;17.50;99.90
23499;DHT22;11926;48.120;11.562;2023-07-22T05:30:29;17.60;99.90
23499;DHT22;11926;48.120;11.562;2023-07-22T05:33:21;17.70;99.90
23499;DHT22;11926;48.120;11.562;2023-07-22T05:36:09;17.70;99.90
23499;DHT22;11926;48.120;11.562;2023-07-22T05:38:57;17.80;99.90
23499;DHT22;11926;48.120;11.562;2023-07-22T05:41:44;17.80;99.90
23499;DHT22;11926;48.120;11.562;2023-07-22T05:44:31;17.90;99.90
23499;DHT22;11926;48.120;11.562;2023-07-22T05:47:18;17.90;99.90
23499;DHT22;11926;48.120;11.562;2023-07-22T05:50:06;18.00;99.90
23499;DHT22;11926;48.120;11.562;2023-07-22T05:52:55;18.00;99.90
23499;DHT22;11926;48.120;11.562;2023-07-22T05:55:42;18.10;99.90
23499;DHT22;11926;48.120;11.562;2023-07-22T05:58:29;18.10;99.90
23499;DHT22;11926;48.120;11.562;2023-07-22T06:01:17;18.20;99.90
23499;DHT22;11926;48.120;11.562;2023-07-22T06:04:04;18.40;99.90
23499;DHT22;11926;48.120;11.562;2023-07-22T06:06:51;18.50;99.90
23499;DHT22;11926;48.120;11.562;2023-07-22T06:09:39;18.70;99.90
23499;DHT22;11926;48.120;11.562;2023-07-22T06:12:26;18.90;99.90
23499;DHT22;11926;48.120;11.562;2023-07-22T06:15:14;19.10;99.90
23499;DHT22;11926;48.120;11.562;2023-07-22T06:18:02;19.20;99.90
23499;DHT22;11926;48.120;11.562;2023-07-22T06:20:49;19.20;99.90
23499;DHT22;11926;48.120;11.562;2023-07-22T06:23:37;19.20;99.90
23499;DHT22;11926;48.120;11.562;2023-07-22T06:26:26;19.20;99.90
23499;DHT22;11926;48.120;11.562;2023-07-22T06:29:13;19.30;99.90
23499;DHT22;11926;48.120;11.562;2023-07-22T06:32:01;19.40;99.80
23499;DHT22;11926;48.120;11.562;2023-07-22T06:34:48;19.60;99.40
23499;DHT22;11926;48.120;11.562;2023-07-22T06:37:35;19.80;98.50
23499;DHT22;11926;48.120;11.562;2023-07-22T06:40:24;20.00;97.70
23499;DHT22;11926;48.120;11.562;2023-07-22T06:43:13;20.00;97.20
23499;DHT22;11926;48.120;11.562;2023-07-22T06:46:00;20.20;97.10
23499;DHT22;11926;48.120;11.562;2023-07-22T06:48:47;20.30;97.10
23499;DHT22;11926;48.120;11.562;2023-07-22T06:51:34;20.50;96.70
23499;DHT22;11926;48.120;11.562;2023-07-22T06:54:21;20.60;96.60
23499;DHT22;11926;48.120;11.562;2023-07-22T06:57:08;20.70;96.40
23499;DHT22;11926;48.120;11.562;2023-07-22T06:59:56;20.70;96.30
23499;DHT22;11926;48.120;11.562;2023-07-22T07:02:44;20.80;95.50
23499;DHT22;11926;48.120;11.562;2023-07-22T07:05:31;20.90;95.90
23499;DHT22;11926;48.120;11.562;2023-07-22T07:08:18;21.00;95.10
23499;DHT22;11926;48.120;11.562;2023-07-22T07:11:05;21.10;94.70
23499;DHT22;11926;48.120;11.562;2023-07-22T07:13:52;21.30;94.10
23499;DHT22;11926;48.120;11.562;2023-07-22T07:16:41;21.40;93.90
23499;DHT22;11926;48.120;11.562;2023-07-22T07:19:28;21.50;93.40
23499;DHT22;11926;48.120;11.562;2023-07-22T07:22:16;21.60;92.90
23499;DHT22;11926;48.120;11.562;2023-07-22T07:25:03;21.70;92.40
23499;DHT22;11926;48.120;11.562;2023-07-22T07:27:51;21.80;92.10
23499;DHT22;11926;48.120;11.562;2023-07-22T07:30:38;22.20;91.70
23499;DHT22;11926;48.120;11.562;2023-07-22T07:33:27;22.80;90.80
23499;DHT22;11926;48.120;11.562;2023-07-22T07:36:15;23.10;90.70
23499;DHT22;11926;48.120;11.562;2023-07-22T07:39:02;23.40;89.60
23499;DHT22;11926;48.120;11.562;2023-07-22T07:41:49;23.80;87.10
23499;DHT22;11926;48.120;11.562;2023-07-22T07:44:36;24.60;85.70
23499;DHT22;11926;48.120;11.562;2023-07-22T07:47:23;25.80;80.40
23499;DHT22;11926;48.120;11.562;2023-07-22T07:50:12;27.20;75.00
23499;DHT22;11926;48.120;11.562;2023-07-22T07:52:58;28.70;70.70
23499;DHT22;11926;48.120;11.562;2023-07-22T07:55:45;30.10;65.80
23499;DHT22;11926;48.120;11.562;2023-07-22T07:58:33;31.20;61.20
23499;DHT22;11926;48.120;11.562;2023-07-22T08:01:20;31.90;60.60
23499;DHT22;11926;48.120;11.562;2023-07-22T08:04:08;32.90;58.40
23499;DHT22;11926;48.120;11.562;2023-07-22T08:06:57;33.90;55.90
23499;DHT22;11926;48.120;11.562;2023-07-22T08:09:46;34.90;53.70
23499;DHT22;11926;48.120;11.562;2023-07-22T08:12:35;35.60;50.50
23499;DHT22;11926;48.120;11.562;2023-07-22T08:18:10;36.70;41.90
23499;DHT22;11926;48.120;11.562;2023-07-22T08:20:58;37.30;42.20
23499;DHT22;11926;48.120;11.562;2023-07-22T08:23:46;37.80;41.00
23499;DHT22;11926;48.120;11.562;2023-07-22T08:26:33;38.20;39.20
23499;DHT22;11926;48.120;11.562;2023-07-22T08:29:20;38.40;39.10
23499;DHT22;11926;48.120;11.562;2023-07-22T08:32:07;38.60;39.50
23499;DHT22;11926;48.120;11.562;2023-07-22T08:34:55;38.40;38.30
23499;DHT22;11926;48.120;11.562;2023-07-22T08:37:42;38.20;39.20
23499;DHT22;11926;48.120;11.562;2023-07-22T08:40:35;38.00;41.20
23499;DHT22;11926;48.120;11.562;2023-07-22T08:43:22;37.90;42.20
23499;DHT22;11926;48.120;11.562;2023-07-22T08:46:12;37.90;41.40
23499;DHT22;11926;48.120;11.562;2023-07-22T08:49:00;38.00;40.80
23499;DHT22;11926;48.120;11.562;2023-07-22T08:51:47;38.50;41.20
23499;DHT22;11926;48.120;11.562;2023-07-22T08:54:36;38.70;39.80
23499;DHT22;11926;48.120;11.562;2023-07-22T08:57:27;37.90;40.30
23499;DHT22;11926;48.120;11.562;2023-07-22T09:00:16;37.80;40.20
23499;DHT22;11926;48.120;11.562;2023-07-22T09:03:04;36.80;40.90
23499;DHT22;11926;48.120;11.562;2023-07-22T09:05:51;37.20;41.00
23499;DHT22;11926;48.120;11.562;2023-07-22T09:08:39;38.10;40.40
23499;DHT22;11926;48.120;11.562;2023-07-22T09:11:26;38.80;31.00
23499;DHT22;11926;48.120;11.562;2023-07-22T09:14:18;39.70;30.90
23499;DHT22;11926;48.120;11.562;2023-07-22T09:17:21;40.40;30.40
23499;DHT22;11926;48.120;11.562;2023-07-22T09:20:08;40.20;29.90
23499;DHT22;11926;48.120;11.562;2023-07-22T09:23:00;40.30;31.00
23499;DHT22;11926;48.120;11.562;2023-07-22T09:26:09;40.60;30.10
23499;DHT22;11926;48.120;11.562;2023-07-22T09:28:57;41.00;29.90
23499;DHT22;11926;48.120;11.562;2023-07-22T09:31:52;41.40;29.30
23499;DHT22;11926;48.120;11.562;2023-07-22T09:34:54;41.80;27.60
23499;DHT22;11926;48.120;11.562;2023-07-22T09:37:42;42.00;28.30
23499;DHT22;11926;48.120;11.562;2023-07-22T09:40:29;42.30;28.20
23499;DHT22;11926;48.120;11.562;2023-07-22T09:43:16;42.60;28.00
23499;DHT22;11926;48.120;11.562;2023-07-22T09:46:07;42.90;27.60
23499;DHT22;11926;48.120;11.562;2023-07-22T09:49:02;42.80;27.10
23499;DHT22;11926;48.120;11.562;2023-07-22T09:51:52;42.60;26.50
23499;DHT22;11926;48.120;11.562;2023-07-22T09:54:48;42.00;27.20
23499;DHT22;11926;48.120;11.562;2023-07-22T09:57:36;41.60;27.50
23499;DHT22;11926;48.120;11.562;2023-07-22T10:00:29;41.00;28.00
23499;DHT22;11926;48.120;11.562;2023-07-22T10:03:19;40.30;28.30
23499;DHT22;11926;48.120;11.562;2023-07-22T10:06:08;39.50;29.80
23499;DHT22;11926;48.120;11.562;2023-07-22T10:08:56;38.70;30.40
23499;DHT22;11926;48.120;11.562;2023-07-22T10:11:44;37.60;30.60
23499;DHT22;11926;48.120;11.562;2023-07-22T10:14:32;36.40;30.70
23499;DHT22;11926;48.120;11.562;2023-07-22T10:17:23;35.20;34.40
23499;DHT22;11926;48.120;11.562;2023-07-22T10:20:11;34.20;36.00
23499;DHT22;11926;48.120;11.562;2023-07-22T10:23:02;33.50;36.30
23499;DHT22;11926;48.120;11.562;2023-07-22T10:25:52;32.90;36.90
23499;DHT22;11926;48.120;11.562;2023-07-22T10:28:40;32.30;37.00
23499;DHT22;11926;48.120;11.562;2023-07-22T10:31:30;31.80;38.40
23499;DHT22;11926;48.120;11.562;2023-07-22T10:34:21;31.40;37.90
23499;DHT22;11926;48.120;11.562;2023-07-22T10:37:09;31.10;40.30
23499;DHT22;11926;48.120;11.562;2023-07-22T10:40:01;30.80;41.70
23499;DHT22;11926;48.120;11.562;2023-07-22T10:42:54;30.60;42.10
23499;DHT22;11926;48.120;11.562;2023-07-22T10:45:43;30.50;40.40
23499;DHT22;11926;48.120;11.562;2023-07-22T10:48:35;30.30;41.00
23499;DHT22;11926;48.120;11.562;2023-07-22T10:51:23;30.20;42.00
23499;DHT22;11926;48.120;11.562;2023-07-22T10:54:37;29.90;41.80
23499;DHT22;11926;48.120;11.562;2023-07-22T10:57:28;29.80;42.10
23499;DHT22;11926;48.120;11.562;2023-07-22T11:00:18;29.80;41.40
23499;DHT22;11926;48.120;11.562;2023-07-22T11:03:10;29.70;42.10
23499;DHT22;11926;48.120;11.562;2023-07-22T11:05:59;29.70;44.00
23499;DHT22;11926;48.120;11.562;2023-07-22T11:08:47;29.80;43.90
23499;DHT22;11926;48.120;11.562;2023-07-22T11:11:36;29.90;43.90
23499;DHT22;11926;48.120;11.562;2023-07-22T11:14:29;30.00;44.00
23499;DHT22;11926;48.120;11.562;2023-07-22T11:17:17;30.00;45.20
23499;DHT22;11926;48.120;11.562;2023-07-22T11:20:05;30.00;43.50
23499;DHT22;11926;48.120;11.562;2023-07-22T11:22:52;30.00;43.60
23499;DHT22;11926;48.120;11.562;2023-07-22T11:25:39;30.00;44.00
23499;DHT22;11926;48.120;11.562;2023-07-22T11:28:27;30.00;45.20
23499;DHT22;11926;48.120;11.562;2023-07-22T11:31:16;30.00;44.20
23499;DHT22;11926;48.120;11.562;2023-07-22T11:34:03;30.00;43.50
23499;DHT22;11926;48.120;11.562;2023-07-22T11:36:52;29.90;43.70
23499;DHT22;11926;48.120;11.562;2023-07-22T11:39:39;29.90;43.20
23499;DHT22;11926;48.120;11.562;2023-07-22T11:42:28;29.90;43.40
23499;DHT22;11926;48.120;11.562;2023-07-22T11:45:16;29.80;42.90
23499;DHT22;11926;48.120;11.562;2023-07-22T11:48:09;29.60;42.90
23499;DHT22;11926;48.120;11.562;2023-07-22T11:50:58;29.50;43.60
23499;DHT22;11926;48.120;11.562;2023-07-22T11:53:47;29.40;44.30
23499;DHT22;11926;48.120;11.562;2023-07-22T11:56:35;29.30;45.10
23499;DHT22;11926;48.120;11.562;2023-07-22T11:59:37;29.30;44.80
23499;DHT22;11926;48.120;11.562;2023-07-22T12:02:26;29.40;44.90
23499;DHT22;11926;48.120;11.562;2023-07-22T12:05:22;29.40;44.80
23499;DHT22;11926;48.120;11.562;2023-07-22T12:08:14;29.40;44.20
23499;DHT22;11926;48.120;11.562;2023-07-22T12:11:02;29.40;43.50
23499;DHT22;11926;48.120;11.562;2023-07-22T12:14:05;29.50;43.10
23499;DHT22;11926;48.120;11.562;2023-07-22T12:16:55;29.50;43.80
23499;DHT22;11926;48.120;11.562;2023-07-22T12:19:52;29.50;42.00
23499;DHT22;11926;48.120;11.562;2023-07-22T12:22:45;29.40;42.60
23499;DHT22;11926;48.120;11.562;2023-07-22T12:25:32;29.20;45.10
23499;DHT22;11926;48.120;11.562;2023-07-22T12:28:19;29.20;44.40
23499;DHT22;11926;48.120;11.562;2023-07-22T12:31:06;29.20;43.70
23499;DHT22;11926;48.120;11.562;2023-07-22T12:33:55;29.30;43.80
23499;DHT22;11926;48.120;11.562;2023-07-22T12:36:43;29.40;43.10
23499;DHT22;11926;48.120;11.562;2023-07-22T12:39:32;29.50;42.90
23499;DHT22;11926;48.120;11.562;2023-07-22T12:42:18;29.50;42.20
23499;DHT22;11926;48.120;11.562;2023-07-22T12:45:06;29.40;43.00
23499;DHT22;11926;48.120;11.562;2023-07-22T12:47:54;29.50;43.90
23499;DHT22;11926;48.120;11.562;2023-07-22T12:50:41;29.50;43.70
23499;DHT22;11926;48.120;11.562;2023-07-22T12:53:29;29.60;44.00
23499;DHT22;11926;48.120;11.562;2023-07-22T12:56:19;29.70;44.00
23499;DHT22;11926;48.120;11.562;2023-07-22T12:59:06;29.80;43.20
23499;DHT22;11926;48.120;11.562;2023-07-22T13:01:53;29.80;42.00
23499;DHT22;11926;48.120;11.562;2023-07-22T13:04:41;29.70;42.00
23499;DHT22;11926;48.120;11.562;2023-07-22T13:07:30;29.60;42.90
23499;DHT22;11926;48.120;11.562;2023-07-22T13:10:17;29.50;42.10
23499;DHT22;11926;48.120;11.562;2023-07-22T13:13:07;29.50;43.90
23499;DHT22;11926;48.120;11.562;2023-07-22T13:15:54;29.60;42.10
23499;DHT22;11926;48.120;11.562;2023-07-22T13:18:41;29.60;43.30
23499;DHT22;11926;48.120;11.562;2023-07-22T13:21:28;29.80;42.50
23499;DHT22;11926;48.120;11.562;2023-07-22T13:24:15;29.80;42.70
23499;DHT22;11926;48.120;11.562;2023-07-22T13:27:03;29.80;43.20
23499;DHT22;11926;48.120;11.562;2023-07-22T13:29:52;29.90;44.80
23499;DHT22;11926;48.120;11.562;2023-07-22T13:32:39;29.90;43.50
23499;DHT22;11926;48.120;11.562;2023-07-22T13:35:26;30.00;43.60
23499;DHT22;11926;48.120;11.562;2023-07-22T13:38:13;30.20;44.20
23499;DHT22;11926;48.120;11.562;2023-07-22T13:41:00;30.40;43.00
23499;DHT22;11926;48.120;11.562;2023-07-22T13:43:47;30.50;42.80
23499;DHT22;11926;48.120;11.562;2023-07-22T13:46:36;30.50;42.00
23499;DHT22;11926;48.120;11.562;2023-07-22T13:49:23;30.60;41.50
23499;DHT22;11926;48.120;11.562;2023-07-22T13:52:10;30.60;40.40
23499;DHT22;11926;48.120;11.562;2023-07-22T13:54:57;30.50;40.10
23499;DHT22;11926;48.120;11.562;2023-07-22T13:57:44;30.50;40.00
23499;DHT22;11926;48.120;11.562;2023-07-22T14:00:31;30.40;40.60
23499;DHT22;11926;48.120;11.562;2023-07-22T14:03:20;30.30;40.30
23499;DHT22;11926;48.120;11.562;2023-07-22T14:06:07;30.30;40.30
23499;DHT22;11926;48.120;11.562;2023-07-22T14:08:54;30.30;42.40
23499;DHT22;11926;48.120;11.562;2023-07-22T14:11:41;30.40;41.10
23499;DHT22;11926;48.120;11.562;2023-07-22T14:14:28;30.40;41.60
23499;DHT22;11926;48.120;11.562;2023-07-22T14:17:15;30.50;40.10
23499;DHT22;11926;48.120;11.562;2023-07-22T14:20:04;30.50;41.00
23499;DHT22;11926;48.120;11.562;2023-07-22T14:22:52;30.60;39.90
23499;DHT22;11926;48.120;11.562;2023-07-22T14:25:40;30.70;40.00
23499;DHT22;11926;48.120;11.562;2023-07-22T14:28:26;30.60;39.70
23499;DHT22;11926;48.120;11.562;2023-07-22T14:31:13;30.60;39.90
23499;DHT22;11926;48.120;11.562;2023-07-22T14:34:01;30.60;40.30
23499;DHT22;11926;48.120;11.562;2023-07-22T14:36:49;30.60;39.80
23499;DHT22;11926;48.120;11.562;2023-07-22T14:39:36;30.60;39.70
23499;DHT22;11926;48.120;11.562;2023-07-22T14:42:23;30.60;40.60
23499;DHT22;11926;48.120;11.562;2023-07-22T14:45:11;30.50;39.50
23499;DHT22;11926;48.120;11.562;2023-07-22T14:47:57;30.40;41.00
23499;DHT22;11926;48.120;11.562;2023-07-22T14:50:44;30.40;40.80
23499;DHT22;11926;48.120;11.562;2023-07-22T14:53:33;30.40;41.00
23499;DHT22;11926;48.120;11.562;2023-07-22T14:56:20;30.40;41.60
23499;DHT22;11926;48.120;11.562;2023-07-22T14:59:07;30.40;42.50
23499;DHT22;11926;48.120;11.562;2023-07-22T15:01:54;30.30;43.30
23499;DHT22;11926;48.120;11.562;2023-07-22T15:04:41;30.10;43.10
23499;DHT22;11926;48.120;11.562;2023-07-22T15:07:28;29.80;44.70
23499;DHT22;11926;48.120;11.562;2023-07-22T15:10:17;29.70;44.90
23499;DHT22;11926;48.120;11.562;2023-07-22T15:13:04;29.70;44.70
23499;DHT22;11926;48.120;11.562;2023-07-22T15:15:53;29.70;44.90
23499;DHT22;11926;48.120;11.562;2023-07-22T15:18:42;29.70;46.90
23499;DHT22;11926;48.120;11.562;2023-07-22T15:21:29;29.60;47.50
23499;DHT22;11926;48.120;11.562;2023-07-22T15:24:16;29.60;46.50
23499;DHT22;11926;48.120;11.562;2023-07-22T15:27:05;29.50;46.60
23499;DHT22;11926;48.120;11.562;2023-07-22T15:29:52;29.40;47.30
23499;DHT22;11926;48.120;11.562;2023-07-22T15:32:39;29.40;46.20
23499;DHT22;11926;48.120;11.562;2023-07-22T15:35:28;29.40;47.30
23499;DHT22;11926;48.120;11.562;2023-07-22T15:38:17;29.20;47.30
23499;DHT22;11926;48.120;11.562;2023-07-22T15:41:04;29.20;46.90
23499;DHT22;11926;48.120;11.562;2023-07-22T15:43:52;29.10;46.90
23499;DHT22;11926;48.120;11.562;2023-07-22T15:46:39;29.10;47.70
23499;DHT22;11926;48.120;11.562;2023-07-22T15:49:26;29.00;47.50
23499;DHT22;11926;48.120;11.562;2023-07-22T15:52:13;28.90;47.20
23499;DHT22;11926;48.120;11.562;2023-07-22T15:55:04;28.90;46.70
23499;DHT22;11926;48.120;11.562;2023-07-22T15:57:51;28.80;47.10
23499;DHT22;11926;48.120;11.562;2023-07-22T16:00:40;28.70;47.80
23499;DHT22;11926;48.120;11.562;2023-07-22T16:03:27;28.70;47.40
23499;DHT22;11926;48.120;11.562;2023-07-22T16:06:14;28.80;47.60
23499;DHT22;11926;48.120;11.562;2023-07-22T16:09:17;28.70;47.70
23499;DHT22;11926;48.120;11.562;2023-07-22T16:12:05;28.60;47.20
23499;DHT22;11926;48.120;11.562;2023-07-22T16:14:53;28.50;47.00
23499;DHT22;11926;48.120;11.562;2023-07-22T16:17:41;28.40;47.40
23499;DHT22;11926;48.120;11.562;2023-07-22T16:20:29;28.30;47.60
23499;DHT22;11926;48.120;11.562;2023-07-22T16:23:16;28.20;48.00
23499;DHT22;11926;48.120;11.562;2023-07-22T16:26:03;28.10;47.60
23499;DHT22;11926;48.120;11.562;2023-07-22T16:28:50;28.10;47.50
23499;DHT22;11926;48.120;11.562;2023-07-22T16:31:40;28.00;47.10
23499;DHT22;11926;48.120;11.562;2023-07-22T16:34:28;27.90;47.00
23499;DHT22;11926;48.120;11.562;2023-07-22T16:37:15;27.80;47.30
23499;DHT22;11926;48.120;11.562;2023-07-22T16:40:02;27.70;48.20
23499;DHT22;11926;48.120;11.562;2023-07-22T16:42:50;27.60;48.10
23499;DHT22;11926;48.120;11.562;2023-07-22T16:45:37;27.50;47.90
23499;DHT22;11926;48.120;11.562;2023-07-22T16:48:24;27.40;48.50
23499;DHT22;11926;48.120;11.562;2023-07-22T16:51:13;27.20;48.50
23499;DHT22;11926;48.120;11.562;2023-07-22T16:54:07;27.10;49.40
23499;DHT22;11926;48.120;11.562;2023-07-22T16:56:55;27.00;48.50
23499;DHT22;11926;48.120;11.562;2023-07-22T16:59:42;26.90;49.60
23499;DHT22;11926;48.120;11.562;2023-07-22T17:02:32;26.90;49.50
23499;DHT22;11926;48.120;11.562;2023-07-22T17:05:20;26.90;50.10
23499;DHT22;11926;48.120;11.562;2023-07-22T17:08:08;26.80;50.30
23499;DHT22;11926;48.120;11.562;2023-07-22T17:10:55;26.80;50.20
23499;DHT22;11926;48.120;11.562;2023-07-22T17:13:42;26.80;50.40
23499;DHT22;11926;48.120;11.562;2023-07-22T17:16:29;26.70;50.20
23499;DHT22;11926;48.120;11.562;2023-07-22T17:19:18;26.60;49.90
23499;DHT22;11926;48.120;11.562;2023-07-22T17:22:05;26.50;50.20
23499;DHT22;11926;48.120;11.562;2023-07-22T17:24:56;26.50;51.30
23499;DHT22;11926;48.120;11.562;2023-07-22T17:27:44;26.40;51.60